Terminal Aerodrome Forecast
Issued by NWS

Current Version | Previous Version | Text Only | Print | Product List | Glossary On
Versions: 1 2 3 4 5 6 7 8 9 10 11 12 13 14 15 16 17 18 19 20 21 22 23 24 25
000
FTUS43 KDVN 270542
TAFBRL
TAF
KBRL 270542Z 2706/2806 20005KT P6SM SCT050
     FM271100 VRB03KT 5SM BR SCT080
      TEMPO 2711/2715 2SM BR SCT015
     FM271600 17008KT P6SM SKC
     FM272200 14006KT P6SM BKN120
     FM280300 15010KT P6SM VCSH BKN040=

USA.gov is the U.S. government's official web portal to all federal, state and local government web resources and services.